Time;durP1;ratioP1;P1;durP2;ratioP2;P2;SDS_P1;SDS_P2;PMS_P1;PMS_P2;Temp;Humidity;BMP_temperature;BMP_pressure;BME280_temperature;BME280_humidity;BME280_pressure;Samples;Min_cycle;Max_cycle;Signal;HPM_P1;HPM_P2
2020/12/04 00:01:23;;;;;;;6.73;5.63;;;6.20;99.90;;;;;;5033443;28;20179;-69
2020/12/04 00:03:48;;;;;;;14.87;5.97;;;6.40;99.90;;;;;;5033260;28;20210;-69
2020/12/04 00:06:14;;;;;;;6.37;5.40;;;6.30;99.90;;;;;;5033397;28;20563;-69
2020/12/04 00:08:39;;;;;;;8.20;5.37;;;6.40;99.90;;;;;;5033327;28;20645;-69
2020/12/04 00:11:05;;;;;;;6.10;5.03;;;6.30;99.90;;;;;;5033049;28;20186;-69
2020/12/04 00:13:31;;;;;;;5.50;4.60;;;6.30;99.90;;;;;;5033337;28;20174;-69
2020/12/04 00:15:59;;;;;;;7.67;4.27;;;6.30;99.90;;;;;;5032956;28;20179;-69
2020/12/04 00:18:25;;;;;;;8.63;4.83;;;6.30;99.90;;;;;;5033287;28;20175;-69
2020/12/04 00:20:50;;;;;;;8.53;5.07;;;6.30;99.90;;;;;;5032982;28;20421;-69
2020/12/04 00:23:16;;;;;;;6.33;4.70;;;6.40;99.90;;;;;;5033175;28;20245;-69
2020/12/04 00:25:41;;;;;;;7.67;5.10;;;6.40;99.90;;;;;;5032870;28;20296;-69
2020/12/04 00:28:07;;;;;;;10.63;5.10;;;6.30;99.90;;;;;;5032892;28;20586;-69
2020/12/04 00:30:32;;;;;;;8.47;4.80;;;6.30;99.90;;;;;;5033188;28;20250;-69
2020/12/04 00:32:58;;;;;;;7.43;5.77;;;6.40;99.90;;;;;;5033175;28;20181;-68
2020/12/04 00:35:23;;;;;;;9.73;5.67;;;6.40;99.90;;;;;;5033133;28;20203;-68
2020/12/04 00:37:49;;;;;;;6.83;5.13;;;6.30;99.90;;;;;;5033095;28;20176;-68
2020/12/04 00:40:14;;;;;;;6.00;4.50;;;6.40;99.90;;;;;;5033350;28;20220;-67
2020/12/04 00:42:44;;;;;;;7.73;5.53;;;6.40;99.90;;;;;;5033060;28;20247;-69
2020/12/04 00:45:09;;;;;;;7.50;5.80;;;6.50;99.90;;;;;;5032943;28;20206;-68
2020/12/04 00:47:35;;;;;;;7.27;5.40;;;6.40;99.90;;;;;;5033044;28;20413;-68
2020/12/04 00:50:00;;;;;;;8.00;5.30;;;6.40;99.90;;;;;;5034161;28;20534;-68
2020/12/04 00:52:29;;;;;;;8.57;5.50;;;6.40;99.90;;;;;;5034966;28;20229;-68
2020/12/04 00:54:54;;;;;;;5.87;5.10;;;6.40;99.90;;;;;;5036527;28;20180;-68
2020/12/04 00:57:20;;;;;;;7.30;5.00;;;6.30;99.90;;;;;;5036459;28;20522;-68
2020/12/04 00:59:45;;;;;;;8.77;4.50;;;6.30;99.90;;;;;;5036136;28;20653;-68
2020/12/04 01:02:11;;;;;;;7.13;5.30;;;6.40;99.90;;;;;;5036375;28;20183;-68
2020/12/04 01:04:36;;;;;;;7.10;4.60;;;6.30;99.90;;;;;;5036255;28;20214;-68
2020/12/04 01:07:06;;;;;;;7.47;4.90;;;6.30;99.90;;;;;;5036242;28;20619;-68
2020/12/04 01:09:32;;;;;;;8.27;5.17;;;6.30;99.90;;;;;;5036205;28;20193;-68
2020/12/04 01:11:58;;;;;;;7.13;5.73;;;6.30;99.90;;;;;;5036208;28;20432;-68
2020/12/04 01:14:23;;;;;;;6.10;4.93;;;6.20;99.90;;;;;;5036160;28;20194;-67
2020/12/04 01:16:49;;;;;;;5.97;5.33;;;6.30;99.90;;;;;;5036057;28;20796;-67
2020/12/04 01:19:15;;;;;;;8.63;5.20;;;6.40;99.90;;;;;;5036032;28;20669;-68
2020/12/04 01:21:40;;;;;;;7.70;4.70;;;6.30;99.90;;;;;;5035752;28;20229;-68
2020/12/04 01:24:06;;;;;;;5.13;4.30;;;6.30;99.90;;;;;;5035649;28;20210;-67
2020/12/04 01:26:31;;;;;;;5.33;4.60;;;6.30;99.90;;;;;;5035883;28;20177;-68
2020/12/04 01:28:57;;;;;;;7.03;4.73;;;6.30;99.90;;;;;;5035901;28;20513;-68
2020/12/04 01:31:22;;;;;;;7.53;4.97;;;6.30;99.90;;;;;;5035518;28;20234;-68
2020/12/04 01:33:48;;;;;;;5.27;4.00;;;6.40;99.90;;;;;;5035761;28;20221;-68
2020/12/04 01:36:14;;;;;;;7.03;4.10;;;6.30;99.90;;;;;;5035984;28;20179;-68
2020/12/04 01:38:40;;;;;;;5.03;4.27;;;6.30;99.90;;;;;;5035712;28;20180;-69
2020/12/04 01:41:06;;;;;;;6.30;4.57;;;6.30;99.90;;;;;;5035582;28;20426;-69
2020/12/04 01:43:31;;;;;;;6.60;4.60;;;6.50;99.90;;;;;;5035515;28;20844;-69
2020/12/04 01:45:58;;;;;;;4.90;4.40;;;6.40;99.90;;;;;;5035545;28;20183;-69
2020/12/04 01:48:24;;;;;;;6.23;4.20;;;6.40;99.90;;;;;;5035492;28;20503;-68
2020/12/04 01:54:13;;;;;;;5.60;3.83;;;6.60;99.90;;;;;;5035046;28;20452;-68
2020/12/04 02:00:01;;;;;;;5.17;4.00;;;6.30;99.90;;;;;;5034977;28;20417;-68
2020/12/04 02:02:26;;;;;;;6.30;4.40;;;6.30;99.90;;;;;;5034140;28;20422;-68
2020/12/04 02:04:52;;;;;;;6.37;3.90;;;6.50;99.90;;;;;;5035178;28;20546;-68
2020/12/04 02:07:40;;;;;;;8.73;4.60;;;6.40;99.90;;;;;;5034938;28;20185;-68
2020/12/04 02:13:29;;;;;;;4.77;4.30;;;6.50;99.90;;;;;;5034912;28;20932;-66
2020/12/04 02:15:55;;;;;;;4.37;3.93;;;6.40;99.90;;;;;;5035075;28;20418;-66
2020/12/04 02:18:21;;;;;;;9.00;4.57;;;6.40;99.90;;;;;;5034504;28;20436;-66
2020/12/04 02:21:00;;;;;;;5.73;5.13;;;6.50;99.90;;;;;;5034679;28;20414;-66
2020/12/04 02:26:48;;;;;;;7.43;4.67;;;6.50;99.90;;;;;;5025173;28;20496;-69
2020/12/04 02:29:13;;;;;;;5.40;4.50;;;6.40;99.90;;;;;;5034560;28;20945;-67
2020/12/04 02:31:39;;;;;;;7.03;5.13;;;6.40;99.90;;;;;;5034781;28;20166;-67
2020/12/04 02:34:04;;;;;;;6.43;5.17;;;6.30;99.90;;;;;;5034747;28;20579;-66
2020/12/04 02:36:30;;;;;;;13.97;5.37;;;6.30;99.90;;;;;;5034382;28;20353;-67
2020/12/04 02:38:55;;;;;;;9.60;5.70;;;6.20;99.90;;;;;;5034946;28;20220;-66
2020/12/04 02:41:21;;;;;;;7.00;5.43;;;6.30;99.90;;;;;;5034595;28;20183;-66
2020/12/04 02:43:46;;;;;;;8.83;4.77;;;6.20;99.90;;;;;;5034476;28;20249;-66
2020/12/04 02:46:12;;;;;;;6.73;4.97;;;6.30;99.90;;;;;;5034462;28;20179;-66
2020/12/04 02:48:37;;;;;;;6.60;4.77;;;6.30;99.90;;;;;;5034437;28;20226;-66
2020/12/04 02:51:06;;;;;;;7.13;4.77;;;6.30;99.90;;;;;;5034179;28;20719;-66
2020/12/04 02:53:31;;;;;;;6.30;4.07;;;6.30;99.90;;;;;;5034361;28;20185;-66
2020/12/04 02:55:57;;;;;;;6.43;5.13;;;6.30;99.90;;;;;;5034362;28;20797;-67
2020/12/04 02:58:22;;;;;;;6.90;4.63;;;6.30;99.90;;;;;;5034320;28;20177;-69
2020/12/04 03:00:48;;;;;;;7.07;4.33;;;6.40;99.90;;;;;;5034817;28;20183;-67
2020/12/04 03:03:13;;;;;;;10.70;4.77;;;6.30;99.90;;;;;;5034143;28;20181;-67
2020/12/04 03:09:01;;;;;;;5.33;3.90;;;6.40;99.90;;;;;;5033950;28;20689;-67
2020/12/04 03:11:27;;;;;;;7.00;5.00;;;6.30;99.90;;;;;;5034086;28;20504;-67
2020/12/04 03:13:52;;;;;;;5.43;3.63;;;6.20;99.90;;;;;;5033443;28;20577;-68
2020/12/04 03:16:18;;;;;;;5.33;4.60;;;6.40;99.90;;;;;;5034083;28;20210;-67
2020/12/04 03:18:44;;;;;;;5.07;4.03;;;6.50;99.90;;;;;;5033928;28;20206;-67
2020/12/04 03:21:10;;;;;;;4.27;3.67;;;6.60;99.90;;;;;;5034043;28;20186;-67
2020/12/04 03:23:35;;;;;;;6.70;4.27;;;6.60;99.90;;;;;;5033909;28;20235;-66
2020/12/04 03:26:01;;;;;;;4.50;2.87;;;6.50;99.90;;;;;;5033604;28;20280;-66
2020/12/04 03:28:27;;;;;;;4.00;3.43;;;6.60;99.90;;;;;;5033927;28;20178;-66
2020/12/04 03:30:53;;;;;;;4.13;3.10;;;6.60;99.90;;;;;;5033825;28;20262;-66
2020/12/04 03:33:19;;;;;;;4.00;3.60;;;6.70;99.90;;;;;;5033857;28;20185;-66
2020/12/04 03:35:45;;;;;;;4.13;3.43;;;6.70;99.90;;;;;;5033554;28;20453;-67
2020/12/04 03:38:10;;;;;;;3.43;3.00;;;6.80;99.90;;;;;;5033725;28;20483;-67
2020/12/04 03:40:36;;;;;;;3.87;3.03;;;6.70;99.90;;;;;;5033509;28;20175;-67
2020/12/04 03:43:02;;;;;;;4.10;2.70;;;6.80;99.90;;;;;;5033684;28;20538;-67
2020/12/04 03:45:27;;;;;;;4.47;2.80;;;6.90;99.90;;;;;;5033708;28;20238;-66
2020/12/04 03:47:53;;;;;;;5.17;3.70;;;6.90;99.90;;;;;;5033357;28;20175;-65
2020/12/04 03:50:19;;;;;;;3.07;2.77;;;6.90;99.90;;;;;;5033617;28;20229;-65
2020/12/04 03:52:44;;;;;;;5.43;3.53;;;6.90;99.90;;;;;;5033692;28;20260;-65
2020/12/04 03:55:10;;;;;;;3.23;2.87;;;6.90;99.90;;;;;;5033644;28;20174;-66
2020/12/04 03:57:35;;;;;;;4.87;3.60;;;7.00;99.90;;;;;;5033612;28;20539;-66
2020/12/04 04:00:01;;;;;;;4.07;2.70;;;6.90;99.90;;;;;;5033588;28;20534;-67
2020/12/04 04:02:27;;;;;;;3.50;3.17;;;7.00;99.90;;;;;;5033493;28;20185;-66
2020/12/04 04:04:53;;;;;;;3.10;2.60;;;6.90;99.90;;;;;;5033474;28;20248;-66
2020/12/04 04:07:18;;;;;;;3.87;3.37;;;6.90;99.90;;;;;;5033550;28;20872;-66
2020/12/04 04:09:44;;;;;;;4.83;3.57;;;6.90;99.90;;;;;;5033497;28;20527;-66
2020/12/04 04:12:10;;;;;;;4.97;3.27;;;6.90;99.90;;;;;;5033470;28;20186;-66
2020/12/04 04:14:36;;;;;;;4.20;3.30;;;7.00;99.90;;;;;;5033413;28;20644;-67
2020/12/04 04:17:02;;;;;;;3.83;3.13;;;7.10;99.90;;;;;;5033166;28;20608;-67
2020/12/04 04:19:28;;;;;;;4.63;2.93;;;7.10;99.90;;;;;;5033064;28;20449;-67
2020/12/04 04:21:53;;;;;;;4.00;2.60;;;7.00;99.90;;;;;;5033376;28;20422;-67
2020/12/04 04:24:19;;;;;;;4.50;3.80;;;7.00;99.90;;;;;;5033421;28;20221;-67
2020/12/04 04:26:48;;;;;;;5.37;2.83;;;7.10;99.90;;;;;;5036615;28;20224;-69
2020/12/04 04:29:13;;;;;;;3.13;2.57;;;7.20;99.90;;;;;;5037638;28;20572;-68
2020/12/04 06:30:19;;;;;;;4.17;3.63;;;7.10;99.90;;;;;;6113542;23;20493;31
2020/12/04 06:32:49;;;;;;;4.93;3.63;;;7.20;99.90;;;;;;4973830;28;20882;-68
2020/12/04 06:35:34;;;;;;;6.20;4.23;;;7.10;99.90;;;;;;4975384;28;20460;-69
2020/12/04 06:38:00;;;;;;;6.27;2.90;;;7.00;99.90;;;;;;4975329;28;20420;-69
2020/12/04 06:40:28;;;;;;;5.30;3.70;;;7.10;99.90;;;;;;4975312;28;20443;-69
2020/12/04 06:42:56;;;;;;;5.73;4.03;;;7.20;99.90;;;;;;4975301;28;20638;-69
2020/12/04 06:45:22;;;;;;;3.07;2.40;;;7.20;99.90;;;;;;5086711;23;20483;-69
2020/12/04 06:48:10;;;;;;;2.80;2.50;;;7.20;99.90;;;;;;5013939;28;20527;-69
2020/12/04 06:50:43;;;;;;;3.60;2.60;;;7.20;99.90;;;;;;5014164;28;20449;-69
2020/12/04 06:53:11;;;;;;;3.47;3.07;;;7.30;99.90;;;;;;5014158;28;20431;-69
2020/12/04 06:55:38;;;;;;;3.60;2.33;;;7.40;99.90;;;;;;5014171;28;20462;-68
2020/12/04 06:58:05;;;;;;;4.03;2.90;;;7.50;99.90;;;;;;5013385;28;20490;-81
2020/12/04 07:00:31;;;;;;;4.20;3.07;;;7.50;99.90;;;;;;5014059;28;20236;-80
2020/12/04 07:02:59;;;;;;;2.73;2.53;;;7.70;99.90;;;;;;5013990;28;20431;-81
2020/12/04 07:05:25;;;;;;;4.53;2.50;;;7.70;99.90;;;;;;5013759;28;20487;-82
2020/12/04 07:08:08;;;;;;;2.90;2.27;;;7.80;99.90;;;;;;5013896;28;20517;-81
2020/12/04 07:10:34;;;;;;;3.20;2.70;;;7.80;99.90;;;;;;5013972;28;20470;-84
2020/12/04 07:13:01;;;;;;;3.80;2.23;;;7.80;99.90;;;;;;5013930;28;20477;-80
2020/12/04 07:15:28;;;;;;;3.60;2.93;;;7.90;99.90;;;;;;5013860;28;20523;-85
2020/12/04 07:17:54;;;;;;;3.80;2.80;;;8.00;99.90;;;;;;5013708;28;20474;-84
2020/12/04 07:20:20;;;;;;;4.47;2.60;;;7.90;99.90;;;;;;5013661;28;20439;-81
2020/12/04 07:22:46;;;;;;;2.70;1.93;;;8.00;99.90;;;;;;5013750;28;21286;-82
2020/12/04 07:25:11;;;;;;;2.50;1.90;;;8.10;99.90;;;;;;5013499;28;20950;-81
2020/12/04 07:27:38;;;;;;;2.83;2.40;;;8.10;99.90;;;;;;5013734;28;20225;-81
2020/12/04 07:30:13;;;;;;;3.20;2.90;;;8.10;99.90;;;;;;5013568;28;20561;-79
2020/12/04 07:32:39;;;;;;;3.63;2.67;;;8.20;99.90;;;;;;5013602;28;20475;-81
2020/12/04 07:35:04;;;;;;;3.10;2.20;;;8.10;99.90;;;;;;5013560;28;20471;-76
2020/12/04 07:37:30;;;;;;;2.90;2.47;;;8.10;99.90;;;;;;5013593;28;20512;-75
2020/12/04 07:39:55;;;;;;;2.10;1.90;;;8.00;99.90;;;;;;5013455;28;20266;-75
2020/12/04 07:42:22;;;;;;;2.73;2.20;;;8.00;99.90;;;;;;5013389;28;20403;-75
2020/12/04 07:44:52;;;;;;;2.63;2.40;;;8.00;99.90;;;;;;5013479;28;20242;-75
2020/12/04 16:30:26;;;;;;;5.90;2.17;;;8.70;99.90;;;;;;5091640;27;20583;-78
2020/12/04 16:32:52;;;;;;;2.77;2.17;;;8.80;99.90;;;;;;5094481;28;20461;-75
2020/12/04 16:35:17;;;;;;;2.97;2.20;;;8.90;99.90;;;;;;5101092;28;20212;-74
2020/12/04 16:37:47;;;;;;;3.30;2.70;;;9.00;99.90;;;;;;5101288;28;20176;-73
2020/12/04 16:40:12;;;;;;;2.77;2.57;;;9.00;99.90;;;;;;5093696;28;20238;-76
2020/12/04 16:42:39;;;;;;;4.40;3.00;;;9.10;99.90;;;;;;5106167;28;20419;-79
2020/12/04 16:45:05;;;;;;;2.70;2.50;;;9.20;99.90;;;;;;5089575;28;20177;-80
2020/12/04 16:47:30;;;;;;;3.63;2.37;;;9.20;99.90;;;;;;5096234;28;20449;-80
2020/12/04 16:49:57;;;;;;;2.67;2.23;;;9.20;99.90;;;;;;5109247;28;20217;-80
2020/12/04 16:52:23;;;;;;;3.00;2.30;;;9.20;99.90;;;;;;5110510;28;20252;-79
2020/12/04 16:54:49;;;;;;;2.77;2.57;;;9.30;99.90;;;;;;5110406;28;20544;-80
2020/12/04 16:57:15;;;;;;;3.17;2.40;;;9.30;99.90;;;;;;5110583;28;20173;-80
2020/12/04 16:59:41;;;;;;;2.37;2.17;;;9.40;99.90;;;;;;5110628;28;20499;-80
2020/12/04 17:02:07;;;;;;;3.97;2.57;;;9.40;99.90;;;;;;5110478;28;20962;-80
2020/12/04 17:04:32;;;;;;;3.37;3.07;;;9.50;99.90;;;;;;5110448;28;20501;-80
2020/12/04 17:06:58;;;;;;;3.87;2.50;;;9.50;99.90;;;;;;5110368;28;20430;-80
2020/12/04 17:09:24;;;;;;;3.10;2.37;;;9.50;99.90;;;;;;5110390;28;20221;-80
2020/12/04 17:11:49;;;;;;;3.93;2.67;;;9.50;99.90;;;;;;5110314;28;20411;-79
2020/12/04 17:14:16;;;;;;;2.70;2.47;;;9.40;99.90;;;;;;5110289;28;20260;-80
2020/12/04 17:16:46;;;;;;;3.47;2.50;;;9.40;99.90;;;;;;5110286;28;20185;-80
2020/12/04 17:19:11;;;;;;;3.20;2.87;;;9.40;99.90;;;;;;5110117;28;20425;-80
2020/12/04 17:21:37;;;;;;;6.67;3.67;;;9.40;99.90;;;;;;5109999;28;20422;-78
2020/12/04 17:24:02;;;;;;;7.37;5.00;;;9.30;99.90;;;;;;5110131;28;20355;-77
2020/12/04 17:26:28;;;;;;;9.03;5.77;;;9.30;99.90;;;;;;5109886;28;20218;-78
2020/12/04 17:28:54;;;;;;;6.80;5.60;;;9.30;99.90;;;;;;5109756;28;20270;-77
2020/12/04 17:31:19;;;;;;;3.43;2.70;;;9.30;99.90;;;;;;5109879;28;20178;-77
2020/12/04 17:33:45;;;;;;;4.37;3.97;;;9.30;99.90;;;;;;5109752;28;20578;-78
2020/12/04 17:36:10;;;;;;;4.67;3.90;;;9.30;99.90;;;;;;5109740;28;20177;-80
2020/12/04 17:38:36;;;;;;;3.80;2.60;;;9.40;99.90;;;;;;5109370;28;20188;-79
2020/12/04 17:41:01;;;;;;;4.10;2.80;;;9.50;99.90;;;;;;5099025;28;20212;-64
2020/12/04 17:43:27;;;;;;;4.93;2.90;;;9.50;99.90;;;;;;5095207;28;20174;-65
2020/12/04 17:45:52;;;;;;;3.23;2.80;;;9.50;99.90;;;;;;5095344;28;20173;-65
2020/12/04 17:48:18;;;;;;;3.30;2.83;;;9.50;99.90;;;;;;5094907;28;20170;-65
2020/12/04 17:50:45;;;;;;;3.47;2.83;;;9.40;99.90;;;;;;5095030;28;20213;-64
2020/12/04 17:53:11;;;;;;;2.97;2.67;;;9.40;99.90;;;;;;5094947;28;20642;-64
2020/12/04 17:55:37;;;;;;;3.90;2.57;;;9.40;99.90;;;;;;5094708;28;20503;-65
2020/12/04 17:58:02;;;;;;;4.60;2.83;;;9.40;99.90;;;;;;5094424;28;20588;-64
2020/12/04 18:00:29;;;;;;;3.93;3.10;;;9.40;99.90;;;;;;5073551;28;20436;-63
2020/12/04 18:02:54;;;;;;;3.53;2.10;;;9.40;99.90;;;;;;5074129;28;20182;-63
2020/12/04 18:05:20;;;;;;;3.27;2.53;;;9.50;99.90;;;;;;5073935;28;20500;-65
2020/12/04 18:07:45;;;;;;;3.73;2.50;;;9.50;99.90;;;;;;5073917;28;20167;-65
2020/12/04 18:10:11;;;;;;;2.57;2.27;;;9.50;99.90;;;;;;5073841;28;20225;-65
2020/12/04 18:12:37;;;;;;;10.50;2.97;;;9.50;99.90;;;;;;5074013;28;20181;-64
2020/12/04 18:15:04;;;;;;;3.47;2.80;;;9.60;99.90;;;;;;5071003;28;20528;-63
2020/12/04 18:17:30;;;;;;;3.63;3.30;;;9.60;99.90;;;;;;5073829;28;20185;-63
2020/12/04 18:19:55;;;;;;;5.10;2.70;;;9.50;99.90;;;;;;5073633;28;20433;-64
2020/12/04 18:22:21;;;;;;;3.47;2.70;;;9.50;99.90;;;;;;5073443;28;20170;-64
2020/12/04 18:24:46;;;;;;;4.00;2.90;;;9.50;99.90;;;;;;5073698;28;20187;-64
2020/12/04 18:27:12;;;;;;;3.57;3.07;;;9.50;99.90;;;;;;5073637;28;20174;-63
2020/12/04 18:29:37;;;;;;;4.20;3.40;;;9.50;99.90;;;;;;5073341;28;20232;-63
2020/12/04 18:32:03;;;;;;;4.60;4.20;;;9.50;99.90;;;;;;5073381;28;20194;-63
2020/12/04 18:34:28;;;;;;;2.90;2.60;;;9.50;99.90;;;;;;5073410;28;20249;-63
2020/12/04 18:36:55;;;;;;;3.53;2.60;;;9.40;99.90;;;;;;5073312;28;20189;-63
2020/12/04 18:39:20;;;;;;;5.20;3.40;;;9.40;99.90;;;;;;5070742;28;20178;-63
2020/12/04 18:41:46;;;;;;;19.23;3.97;;;9.30;99.90;;;;;;5073434;28;20792;-63
2020/12/04 18:44:12;;;;;;;3.77;2.97;;;9.30;99.90;;;;;;5073222;28;20690;-63
2020/12/04 18:46:38;;;;;;;5.90;3.20;;;9.30;99.90;;;;;;5073209;28;20178;-63
2020/12/04 18:49:04;;;;;;;4.83;3.80;;;9.30;99.90;;;;;;5073037;28;20205;-64
2020/12/04 18:51:30;;;;;;;3.90;3.40;;;9.30;99.90;;;;;;5072500;28;20890;-63
2020/12/04 18:53:56;;;;;;;3.23;2.93;;;9.30;99.90;;;;;;5072630;28;20464;-63
2020/12/04 18:56:22;;;;;;;3.00;2.43;;;9.30;99.90;;;;;;5073528;28;20185;-65
2020/12/04 18:58:48;;;;;;;4.80;3.13;;;9.30;99.90;;;;;;5073410;28;20448;-63
2020/12/04 19:01:14;;;;;;;3.27;2.80;;;9.20;99.90;;;;;;5073338;28;20428;-64
2020/12/04 19:03:43;;;;;;;3.70;2.80;;;9.30;99.90;;;;;;5072877;28;20178;-64
2020/12/04 19:06:10;;;;;;;2.90;2.70;;;9.20;99.90;;;;;;5072915;28;20453;-65
2020/12/04 19:08:36;;;;;;;3.13;2.87;;;9.30;99.90;;;;;;5072704;28;20499;-65
2020/12/04 19:11:04;;;;;;;3.50;3.03;;;9.20;99.90;;;;;;5072455;28;20517;-64
2020/12/04 19:13:29;;;;;;;2.87;2.57;;;9.20;99.90;;;;;;5072799;28;20460;-64
2020/12/04 19:15:55;;;;;;;3.63;3.13;;;9.20;99.90;;;;;;5072743;28;20471;-66
2020/12/04 19:18:20;;;;;;;2.50;2.30;;;9.20;99.90;;;;;;5072908;28;20206;-66
2020/12/04 19:20:46;;;;;;;3.87;3.00;;;9.20;99.90;;;;;;5072771;28;20174;-66
2020/12/04 19:23:12;;;;;;;3.03;2.73;;;9.30;99.90;;;;;;5072952;28;20273;-64
2020/12/04 19:25:37;;;;;;;3.57;3.17;;;9.20;99.90;;;;;;5073066;28;20656;-63
2020/12/04 19:28:03;;;;;;;2.97;2.77;;;9.20;99.90;;;;;;5072465;28;20190;-65
2020/12/04 19:30:28;;;;;;;3.20;2.97;;;9.20;99.90;;;;;;5072221;28;20210;-65
2020/12/04 19:32:54;;;;;;;5.23;3.17;;;9.10;99.90;;;;;;5072527;28;20181;-65
2020/12/04 19:35:20;;;;;;;5.47;4.00;;;9.10;99.90;;;;;;5070690;28;20535;-66
2020/12/04 19:37:46;;;;;;;3.70;3.23;;;9.10;99.90;;;;;;5072568;28;20534;-67
2020/12/04 19:40:14;;;;;;;3.97;3.27;;;9.10;99.90;;;;;;5072743;28;20186;-67
2020/12/04 19:42:40;;;;;;;3.03;2.80;;;9.00;99.90;;;;;;5072725;28;20508;-67
2020/12/04 19:45:06;;;;;;;4.20;3.77;;;9.10;99.90;;;;;;5072549;28;20590;-66
2020/12/04 19:47:31;;;;;;;3.87;3.50;;;9.10;99.90;;;;;;5072734;28;20174;-66
2020/12/04 19:49:57;;;;;;;3.57;3.13;;;9.00;99.90;;;;;;5072532;28;20472;-66
2020/12/04 19:52:23;;;;;;;4.90;3.63;;;8.80;99.90;;;;;;5072540;28;20171;-65
2020/12/04 19:54:48;;;;;;;4.17;3.37;;;8.90;99.90;;;;;;5072583;28;20174;-65
2020/12/04 19:57:14;;;;;;;4.03;3.43;;;8.90;99.90;;;;;;5072490;28;20240;-65
2020/12/04 19:59:39;;;;;;;4.53;3.00;;;8.90;99.90;;;;;;5072126;28;20194;-65
2020/12/04 20:02:05;;;;;;;3.03;2.80;;;8.90;99.90;;;;;;5072321;28;20170;-66
2020/12/04 20:04:31;;;;;;;6.70;3.17;;;8.90;99.90;;;;;;5072346;28;20170;-66
2020/12/04 20:06:56;;;;;;;4.60;3.60;;;8.90;99.90;;;;;;5072388;28;20507;-66
2020/12/04 20:09:22;;;;;;;4.83;4.30;;;8.90;99.90;;;;;;5072365;28;20206;-66
2020/12/04 20:11:49;;;;;;;6.67;4.30;;;8.80;99.90;;;;;;5072323;28;20175;-66
2020/12/04 20:14:15;;;;;;;3.90;3.40;;;8.80;99.90;;;;;;5072374;28;20178;-66
2020/12/04 20:16:40;;;;;;;4.10;3.70;;;8.80;99.90;;;;;;5072255;28;20581;-66
2020/12/04 20:19:06;;;;;;;5.30;4.10;;;8.80;99.90;;;;;;5072145;28;20174;-66
2020/12/04 20:21:31;;;;;;;5.70;3.80;;;8.80;99.90;;;;;;5072210;28;20170;-66
2020/12/04 20:23:57;;;;;;;6.23;3.90;;;8.80;99.90;;;;;;5072273;28;20265;-66
2020/12/04 20:26:26;;;;;;;4.57;3.90;;;8.80;99.90;;;;;;5072281;28;20736;-66
2020/12/04 20:28:53;;;;;;;5.53;3.87;;;8.80;99.90;;;;;;5071951;28;20234;-66
2020/12/04 20:31:19;;;;;;;5.80;3.97;;;8.80;99.90;;;;;;5072114;28;20907;-66
2020/12/04 20:33:45;;;;;;;5.00;3.57;;;8.80;99.90;;;;;;5072241;28;20424;-67
2020/12/04 20:36:10;;;;;;;7.23;3.90;;;8.80;99.90;;;;;;5072101;28;20838;-66
2020/12/04 20:38:36;;;;;;;4.80;4.07;;;8.80;99.90;;;;;;5072118;28;20270;-66
2020/12/04 20:41:01;;;;;;;6.27;4.57;;;8.80;99.90;;;;;;5071982;28;20201;-66
2020/12/04 20:43:27;;;;;;;4.67;3.53;;;8.70;99.90;;;;;;5071946;28;20201;-67
2020/12/04 20:45:52;;;;;;;4.90;4.47;;;8.70;99.90;;;;;;5072044;28;20178;-67
2020/12/04 20:48:18;;;;;;;5.00;4.10;;;8.70;99.90;;;;;;5070691;28;20188;-66
2020/12/04 20:50:43;;;;;;;7.13;4.33;;;8.60;99.90;;;;;;5071951;28;20202;-66
2020/12/04 20:53:09;;;;;;;7.67;4.40;;;8.70;99.90;;;;;;5071946;28;20182;-66
2020/12/04 20:55:34;;;;;;;6.03;4.30;;;8.60;99.90;;;;;;5072201;28;20541;-66
2020/12/04 20:58:00;;;;;;;6.27;4.97;;;8.60;99.90;;;;;;5071782;28;20178;-66
2020/12/04 21:00:25;;;;;;;7.80;4.80;;;8.50;99.90;;;;;;5071816;28;20198;-66
2020/12/04 21:02:51;;;;;;;5.07;4.57;;;8.40;99.90;;;;;;5071868;28;20182;-66
2020/12/04 21:05:16;;;;;;;5.53;5.00;;;8.30;99.90;;;;;;5071779;28;20510;-67
2020/12/04 21:07:42;;;;;;;11.20;7.37;;;8.30;99.90;;;;;;5071388;28;20201;-67
2020/12/04 21:10:07;;;;;;;9.80;6.90;;;8.20;99.90;;;;;;5071493;28;20233;-67
2020/12/04 21:12:33;;;;;;;7.80;5.70;;;8.20;99.90;;;;;;5071842;28;20170;-67
2020/12/04 21:14:59;;;;;;;8.73;6.17;;;8.10;99.90;;;;;;5071860;28;20599;-67
2020/12/04 21:17:25;;;;;;;6.57;5.50;;;8.00;99.90;;;;;;5075582;28;20217;-66
2020/12/04 21:19:50;;;;;;;7.80;5.23;;;8.00;99.90;;;;;;5075405;28;20471;-66
2020/12/04 21:22:16;;;;;;;6.23;4.63;;;7.90;99.90;;;;;;5075373;28;20171;-66
2020/12/04 21:24:42;;;;;;;5.83;5.00;;;7.80;99.90;;;;;;5075381;28;20197;-66
2020/12/04 21:27:08;;;;;;;5.20;4.27;;;7.80;99.90;;;;;;5075282;28;20432;-67
2020/12/04 21:29:33;;;;;;;6.70;5.30;;;7.70;99.90;;;;;;5075023;28;20233;-66
2020/12/04 21:31:59;;;;;;;5.47;4.57;;;7.70;99.90;;;;;;5074946;28;20186;-66
2020/12/04 21:34:24;;;;;;;7.27;4.17;;;7.60;99.90;;;;;;5075041;28;20175;-66
2020/12/04 21:36:50;;;;;;;5.30;4.03;;;7.50;99.90;;;;;;5075059;28;20167;-66
2020/12/04 21:39:16;;;;;;;5.77;4.37;;;7.50;99.90;;;;;;5075099;28;20669;-66
2020/12/04 21:41:43;;;;;;;4.27;3.53;;;7.50;99.90;;;;;;5075091;28;20637;-66
2020/12/04 21:44:09;;;;;;;6.97;3.70;;;7.40;99.90;;;;;;5074846;28;20178;-66
2020/12/04 21:46:35;;;;;;;4.87;4.20;;;7.30;99.90;;;;;;5075089;28;20431;-65
2020/12/04 21:49:01;;;;;;;8.27;4.63;;;7.30;99.90;;;;;;5074534;28;20472;-65
2020/12/04 21:51:27;;;;;;;5.80;5.17;;;7.20;99.90;;;;;;5074923;28;20174;-65
2020/12/04 21:53:52;;;;;;;4.20;3.80;;;7.20;99.90;;;;;;5074894;28;20261;-66
2020/12/04 21:56:19;;;;;;;5.50;4.30;;;7.20;99.90;;;;;;5074804;28;20613;-66
2020/12/04 21:58:45;;;;;;;6.10;4.50;;;7.20;99.90;;;;;;5074725;28;20183;-66
2020/12/04 22:01:11;;;;;;;5.90;4.73;;;7.10;99.90;;;;;;5074664;28;20837;-66
2020/12/04 22:03:36;;;;;;;6.50;4.93;;;7.10;99.90;;;;;;5074780;28;20174;-66
2020/12/04 22:06:02;;;;;;;7.17;4.77;;;7.20;99.90;;;;;;5074464;28;20931;-66
2020/12/04 22:08:27;;;;;;;4.87;4.37;;;7.30;99.90;;;;;;5074645;28;20185;-66
2020/12/04 22:10:53;;;;;;;5.40;4.90;;;7.30;99.90;;;;;;5074538;28;20591;-65
2020/12/04 22:13:19;;;;;;;6.73;4.97;;;7.30;99.90;;;;;;5074263;28;20601;-66
2020/12/04 22:15:44;;;;;;;5.10;4.50;;;7.30;99.90;;;;;;5074544;28;20663;-66
2020/12/04 22:18:10;;;;;;;5.87;5.27;;;7.30;99.90;;;;;;5074392;28;20196;-66
2020/12/04 22:20:35;;;;;;;9.37;5.73;;;7.30;99.90;;;;;;5074272;28;20174;-66
2020/12/04 22:23:01;;;;;;;5.77;4.60;;;7.30;99.90;;;;;;5074023;28;20220;-66
2020/12/04 22:25:26;;;;;;;6.50;4.47;;;7.30;99.90;;;;;;5074368;28;20166;-66
2020/12/04 22:27:52;;;;;;;5.53;5.03;;;7.20;99.90;;;;;;5074086;28;20178;-66
2020/12/04 22:30:17;;;;;;;7.20;5.03;;;7.20;99.90;;;;;;5074036;28;20719;-66
2020/12/04 22:32:43;;;;;;;7.23;5.80;;;7.20;99.90;;;;;;5074057;28;20239;-66
2020/12/04 22:35:09;;;;;;;9.03;6.10;;;7.10;99.90;;;;;;5074031;28;20641;-66
2020/12/04 22:37:34;;;;;;;6.07;5.57;;;7.10;99.90;;;;;;5074152;28;20189;-66
2020/12/04 22:40:00;;;;;;;8.37;5.83;;;7.10;99.90;;;;;;5073696;28;20436;-67
2020/12/04 22:42:26;;;;;;;6.13;5.50;;;7.10;99.90;;;;;;5073834;28;20178;-66
2020/12/04 22:44:51;;;;;;;7.40;5.20;;;7.10;99.90;;;;;;5073819;28;20174;-66
2020/12/04 22:47:17;;;;;;;6.30;4.77;;;7.10;99.90;;;;;;5073830;28;20205;-66
2020/12/04 22:49:42;;;;;;;9.03;6.47;;;7.10;99.90;;;;;;5073577;28;20234;-66
2020/12/04 22:52:08;;;;;;;8.20;6.73;;;7.10;99.90;;;;;;5073758;28;20198;-66
2020/12/04 22:54:33;;;;;;;9.83;6.80;;;7.10;99.90;;;;;;5073681;28;20181;-66
2020/12/04 22:56:59;;;;;;;10.93;8.07;;;7.10;99.90;;;;;;5073476;28;20221;-66
2020/12/04 22:59:24;;;;;;;12.00;9.00;;;7.20;99.90;;;;;;5073546;28;20227;-66
2020/12/04 23:01:50;;;;;;;11.03;7.57;;;7.20;99.90;;;;;;5073509;28;20197;-66
2020/12/04 23:04:15;;;;;;;10.33;7.23;;;7.40;99.90;;;;;;5073637;28;20691;-66
2020/12/04 23:06:41;;;;;;;8.60;7.40;;;7.50;99.90;;;;;;5073176;28;20178;-65
2020/12/04 23:09:09;;;;;;;8.63;7.20;;;7.50;99.90;;;;;;5073197;28;20669;-65
2020/12/04 23:11:35;;;;;;;8.07;7.27;;;7.40;99.90;;;;;;5073403;28;20178;-65
2020/12/04 23:14:01;;;;;;;8.93;7.07;;;7.40;99.90;;;;;;5072985;28;20451;-65
2020/12/04 23:16:26;;;;;;;9.53;7.60;;;7.40;99.90;;;;;;5073330;28;20175;-64
2020/12/04 23:18:55;;;;;;;7.20;6.30;;;7.50;99.90;;;;;;5073034;28;20447;-66
2020/12/04 23:21:22;;;;;;;9.60;7.57;;;7.50;99.90;;;;;;5073274;28;20182;-65
2020/12/04 23:23:50;;;;;;;10.57;7.27;;;7.40;99.90;;;;;;5072580;28;20799;-65
2020/12/04 23:26:16;;;;;;;11.30;6.77;;;7.40;99.90;;;;;;5073183;28;20424;-66
2020/12/04 23:28:42;;;;;;;6.80;6.10;;;7.40;99.90;;;;;;5073301;28;20476;-66
2020/12/04 23:31:07;;;;;;;8.77;6.60;;;7.30;99.90;;;;;;5073507;28;20432;-66
2020/12/04 23:33:33;;;;;;;8.07;6.00;;;7.30;99.90;;;;;;5073756;28;20182;-66
2020/12/04 23:35:58;;;;;;;12.87;7.87;;;7.40;99.90;;;;;;5073616;28;20191;-66
2020/12/04 23:38:24;;;;;;;12.47;9.50;;;7.40;99.90;;;;;;5073327;28;20532;-66
2020/12/04 23:40:49;;;;;;;12.80;7.80;;;7.40;99.90;;;;;;5073574;28;20182;-66
2020/12/04 23:43:15;;;;;;;7.73;6.70;;;7.40;99.90;;;;;;5073678;28;20194;-66
2020/12/04 23:45:40;;;;;;;10.97;8.30;;;7.30;99.90;;;;;;5073546;28;20178;-66
2020/12/04 23:48:06;;;;;;;8.57;7.63;;;7.30;99.90;;;;;;5073541;28;20181;-66